sensor_id;sensor_type;location;lat;lon;timestamp;temperature;humidity
10123;DHT22;5101;49.038;8.710;2022-12-15T00:00:41;0.50;99.90
10123;DHT22;5101;49.038;8.710;2022-12-15T00:03:25;0.50;99.90
10123;DHT22;5101;49.038;8.710;2022-12-15T00:06:09;0.60;99.90
10123;DHT22;5101;49.038;8.710;2022-12-15T00:08:53;0.60;99.90
10123;DHT22;5101;49.038;8.710;2022-12-15T00:11:37;0.60;99.90
10123;DHT22;5101;49.038;8.710;2022-12-15T00:14:21;0.50;99.90
10123;DHT22;5101;49.038;8.710;2022-12-15T00:17:05;0.50;99.90
10123;DHT22;5101;49.038;8.710;2022-12-15T00:19:50;0.50;99.90
10123;DHT22;5101;49.038;8.710;2022-12-15T00:22:34;0.50;99.90
10123;DHT22;5101;49.038;8.710;2022-12-15T00:25:17;0.50;99.90
10123;DHT22;5101;49.038;8.710;2022-12-15T00:28:02;0.60;99.90
10123;DHT22;5101;49.038;8.710;2022-12-15T00:30:46;0.50;99.90
10123;DHT22;5101;49.038;8.710;2022-12-15T00:33:30;0.50;99.90
10123;DHT22;5101;49.038;8.710;2022-12-15T00:36:14;0.60;99.90
10123;DHT22;5101;49.038;8.710;2022-12-15T00:38:58;0.50;99.90
10123;DHT22;5101;49.038;8.710;2022-12-15T00:41:23;0.50;99.90
10123;DHT22;5101;49.038;8.710;2022-12-15T00:43:49;0.50;99.90
10123;DHT22;5101;49.038;8.710;2022-12-15T00:46:14;0.50;99.90
10123;DHT22;5101;49.038;8.710;2022-12-15T00:48:59;0.50;99.90
10123;DHT22;5101;49.038;8.710;2022-12-15T00:51:25;0.50;99.90
10123;DHT22;5101;49.038;8.710;2022-12-15T00:54:09;0.50;99.90
10123;DHT22;5101;49.038;8.710;2022-12-15T00:56:53;0.50;99.90
10123;DHT22;5101;49.038;8.710;2022-12-15T00:59:37;0.60;99.90
10123;DHT22;5101;49.038;8.710;2022-12-15T01:02:21;0.60;99.90
10123;DHT22;5101;49.038;8.710;2022-12-15T01:05:05;0.60;99.90
10123;DHT22;5101;49.038;8.710;2022-12-15T01:07:50;0.60;99.90
10123;DHT22;5101;49.038;8.710;2022-12-15T01:10:34;0.50;99.90
10123;DHT22;5101;49.038;8.710;2022-12-15T01:13:17;0.60;99.90
10123;DHT22;5101;49.038;8.710;2022-12-15T01:16:01;0.60;99.90
10123;DHT22;5101;49.038;8.710;2022-12-15T01:18:45;0.60;99.90
10123;DHT22;5101;49.038;8.710;2022-12-15T01:21:31;0.60;99.90
10123;DHT22;5101;49.038;8.710;2022-12-15T01:23:56;0.50;99.90
10123;DHT22;5101;49.038;8.710;2022-12-15T01:26:22;0.50;99.90
10123;DHT22;5101;49.038;8.710;2022-12-15T01:28:47;0.50;99.90
10123;DHT22;5101;49.038;8.710;2022-12-15T01:31:13;0.50;99.90
10123;DHT22;5101;49.038;8.710;2022-12-15T01:33:38;0.50;99.90
10123;DHT22;5101;49.038;8.710;2022-12-15T01:36:08;0.60;99.90
10123;DHT22;5101;49.038;8.710;2022-12-15T01:38:33;0.60;99.90
10123;DHT22;5101;49.038;8.710;2022-12-15T01:41:02;0.60;99.90
10123;DHT22;5101;49.038;8.710;2022-12-15T01:43:31;0.60;99.90
10123;DHT22;5101;49.038;8.710;2022-12-15T01:46:08;0.60;99.90
10123;DHT22;5101;49.038;8.710;2022-12-15T01:48:56;0.60;99.90
10123;DHT22;5101;49.038;8.710;2022-12-15T01:51:33;0.60;99.90
10123;DHT22;5101;49.038;8.710;2022-12-15T01:54:07;0.60;99.90
10123;DHT22;5101;49.038;8.710;2022-12-15T01:56:38;0.40;99.90
10123;DHT22;5101;49.038;8.710;2022-12-15T01:59:08;0.60;99.90
10123;DHT22;5101;49.038;8.710;2022-12-15T02:01:34;0.70;99.90
10123;DHT22;5101;49.038;8.710;2022-12-15T02:04:00;0.60;99.90
10123;DHT22;5101;49.038;8.710;2022-12-15T02:06:27;0.70;99.90
10123;DHT22;5101;49.038;8.710;2022-12-15T02:08:56;0.70;99.90
10123;DHT22;5101;49.038;8.710;2022-12-15T02:14:00;0.50;99.90
10123;DHT22;5101;49.038;8.710;2022-12-15T02:17:00;0.50;99.90
10123;DHT22;5101;49.038;8.710;2022-12-15T02:22:32;0.60;99.90
10123;DHT22;5101;49.038;8.710;2022-12-15T02:28:01;0.60;99.90
10123;DHT22;5101;49.038;8.710;2022-12-15T02:33:20;0.60;99.90
10123;DHT22;5101;49.038;8.710;2022-12-15T02:36:08;0.50;99.90
10123;DHT22;5101;49.038;8.710;2022-12-15T02:38:38;0.50;99.90
10123;DHT22;5101;49.038;8.710;2022-12-15T02:41:38;0.60;99.90
10123;DHT22;5101;49.038;8.710;2022-12-15T02:44:25;0.60;99.90
10123;DHT22;5101;49.038;8.710;2022-12-15T02:52:55;0.60;99.90
10123;DHT22;5101;49.038;8.710;2022-12-15T02:58:26;0.60;99.90
10123;DHT22;5101;49.038;8.710;2022-12-15T03:01:02;0.60;99.90
10123;DHT22;5101;49.038;8.710;2022-12-15T03:03:31;0.60;99.90
10123;DHT22;5101;49.038;8.710;2022-12-15T03:05:58;0.60;99.90
10123;DHT22;5101;49.038;8.710;2022-12-15T03:08:27;0.50;99.90
10123;DHT22;5101;49.038;8.710;2022-12-15T03:10:53;0.50;99.90
10123;DHT22;5101;49.038;8.710;2022-12-15T03:13:20;0.60;99.90
10123;DHT22;5101;49.038;8.710;2022-12-15T03:15:45;0.60;99.90
10123;DHT22;5101;49.038;8.710;2022-12-15T03:18:11;0.60;99.90
10123;DHT22;5101;49.038;8.710;2022-12-15T03:20:37;0.60;99.90
10123;DHT22;5101;49.038;8.710;2022-12-15T03:23:02;0.60;99.90
10123;DHT22;5101;49.038;8.710;2022-12-15T03:25:28;0.70;99.90
10123;DHT22;5101;49.038;8.710;2022-12-15T03:27:54;0.70;99.90
10123;DHT22;5101;49.038;8.710;2022-12-15T03:30:19;0.60;99.90
10123;DHT22;5101;49.038;8.710;2022-12-15T03:32:45;0.60;99.90
10123;DHT22;5101;49.038;8.710;2022-12-15T03:35:10;0.60;99.90
10123;DHT22;5101;49.038;8.710;2022-12-15T03:37:37;0.90;99.90
10123;DHT22;5101;49.038;8.710;2022-12-15T03:40:03;0.70;99.90
10123;DHT22;5101;49.038;8.710;2022-12-15T03:42:29;0.70;99.90
10123;DHT22;5101;49.038;8.710;2022-12-15T03:45:22;0.70;99.90
10123;DHT22;5101;49.038;8.710;2022-12-15T03:47:49;0.70;99.90
10123;DHT22;5101;49.038;8.710;2022-12-15T03:50:17;0.70;99.90
10123;DHT22;5101;49.038;8.710;2022-12-15T03:52:43;0.60;99.90
10123;DHT22;5101;49.038;8.710;2022-12-15T03:55:10;0.60;99.90
10123;DHT22;5101;49.038;8.710;2022-12-15T03:57:36;0.60;99.90
10123;DHT22;5101;49.038;8.710;2022-12-15T04:00:02;0.60;99.90
10123;DHT22;5101;49.038;8.710;2022-12-15T04:02:28;0.60;99.90
10123;DHT22;5101;49.038;8.710;2022-12-15T04:04:54;0.60;99.90
10123;DHT22;5101;49.038;8.710;2022-12-15T04:07:19;0.60;99.90
10123;DHT22;5101;49.038;8.710;2022-12-15T04:09:45;0.50;99.90
10123;DHT22;5101;49.038;8.710;2022-12-15T04:12:10;0.60;99.90
10123;DHT22;5101;49.038;8.710;2022-12-15T04:14:36;0.60;99.90
10123;DHT22;5101;49.038;8.710;2022-12-15T04:17:07;0.60;99.90
10123;DHT22;5101;49.038;8.710;2022-12-15T04:19:33;0.70;99.90
10123;DHT22;5101;49.038;8.710;2022-12-15T04:22:17;0.70;99.90
10123;DHT22;5101;49.038;8.710;2022-12-15T04:24:42;0.70;99.90
10123;DHT22;5101;49.038;8.710;2022-12-15T04:27:26;0.70;99.90
10123;DHT22;5101;49.038;8.710;2022-12-15T04:30:11;0.70;99.90
10123;DHT22;5101;49.038;8.710;2022-12-15T04:32:55;0.60;99.90
10123;DHT22;5101;49.038;8.710;2022-12-15T04:35:39;0.60;99.90
10123;DHT22;5101;49.038;8.710;2022-12-15T04:38:24;0.50;99.90
10123;DHT22;5101;49.038;8.710;2022-12-15T04:41:09;0.50;99.90
10123;DHT22;5101;49.038;8.710;2022-12-15T04:43:53;0.50;99.90
10123;DHT22;5101;49.038;8.710;2022-12-15T04:46:37;0.50;99.90
10123;DHT22;5101;49.038;8.710;2022-12-15T04:49:21;0.50;99.90
10123;DHT22;5101;49.038;8.710;2022-12-15T04:52:05;0.50;99.90
10123;DHT22;5101;49.038;8.710;2022-12-15T04:54:49;0.40;99.90
10123;DHT22;5101;49.038;8.710;2022-12-15T04:57:34;0.40;99.90
10123;DHT22;5101;49.038;8.710;2022-12-15T05:00:18;0.40;99.90
10123;DHT22;5101;49.038;8.710;2022-12-15T05:03:06;0.30;99.90
10123;DHT22;5101;49.038;8.710;2022-12-15T05:05:50;0.30;99.90
10123;DHT22;5101;49.038;8.710;2022-12-15T05:08:34;0.40;99.90
10123;DHT22;5101;49.038;8.710;2022-12-15T05:11:18;0.40;99.90
10123;DHT22;5101;49.038;8.710;2022-12-15T05:14:02;0.40;99.90
10123;DHT22;5101;49.038;8.710;2022-12-15T05:16:46;0.40;99.90
10123;DHT22;5101;49.038;8.710;2022-12-15T05:19:30;0.40;99.90
10123;DHT22;5101;49.038;8.710;2022-12-15T05:22:15;0.40;99.90
10123;DHT22;5101;49.038;8.710;2022-12-15T05:24:59;0.40;99.90
10123;DHT22;5101;49.038;8.710;2022-12-15T05:27:43;0.40;99.90
10123;DHT22;5101;49.038;8.710;2022-12-15T05:30:27;0.50;99.90
10123;DHT22;5101;49.038;8.710;2022-12-15T05:33:10;0.40;99.90
10123;DHT22;5101;49.038;8.710;2022-12-15T05:35:36;0.30;99.90
10123;DHT22;5101;49.038;8.710;2022-12-15T05:38:04;0.30;99.90
10123;DHT22;5101;49.038;8.710;2022-12-15T05:40:29;0.30;99.90
10123;DHT22;5101;49.038;8.710;2022-12-15T05:42:57;0.30;99.90
10123;DHT22;5101;49.038;8.710;2022-12-15T05:45:23;0.30;99.90
10123;DHT22;5101;49.038;8.710;2022-12-15T05:47:50;0.30;99.90
10123;DHT22;5101;49.038;8.710;2022-12-15T05:50:16;0.30;99.90
10123;DHT22;5101;49.038;8.710;2022-12-15T05:52:42;0.40;99.90
10123;DHT22;5101;49.038;8.710;2022-12-15T05:55:07;0.40;99.90
10123;DHT22;5101;49.038;8.710;2022-12-15T05:57:33;0.50;99.90
10123;DHT22;5101;49.038;8.710;2022-12-15T05:59:59;0.50;99.90
10123;DHT22;5101;49.038;8.710;2022-12-15T06:02:24;0.50;99.90
10123;DHT22;5101;49.038;8.710;2022-12-15T06:04:50;0.60;99.90
10123;DHT22;5101;49.038;8.710;2022-12-15T06:07:15;0.50;99.90
10123;DHT22;5101;49.038;8.710;2022-12-15T06:09:40;0.50;99.90
10123;DHT22;5101;49.038;8.710;2022-12-15T06:12:06;0.50;99.90
10123;DHT22;5101;49.038;8.710;2022-12-15T06:14:31;0.60;99.90
10123;DHT22;5101;49.038;8.710;2022-12-15T06:16:57;0.60;99.90
10123;DHT22;5101;49.038;8.710;2022-12-15T06:19:24;0.60;99.90
10123;DHT22;5101;49.038;8.710;2022-12-15T06:21:49;0.60;99.90
10123;DHT22;5101;49.038;8.710;2022-12-15T06:24:15;0.50;99.90
10123;DHT22;5101;49.038;8.710;2022-12-15T06:26:40;0.50;99.90
10123;DHT22;5101;49.038;8.710;2022-12-15T06:29:08;0.50;99.90
10123;DHT22;5101;49.038;8.710;2022-12-15T06:31:35;0.50;99.90
10123;DHT22;5101;49.038;8.710;2022-12-15T06:34:04;0.50;99.90
10123;DHT22;5101;49.038;8.710;2022-12-15T06:36:29;0.60;99.90
10123;DHT22;5101;49.038;8.710;2022-12-15T06:38:58;0.60;99.90
10123;DHT22;5101;49.038;8.710;2022-12-15T06:41:25;0.60;99.90
10123;DHT22;5101;49.038;8.710;2022-12-15T06:43:52;0.60;99.90
10123;DHT22;5101;49.038;8.710;2022-12-15T06:46:18;0.70;99.90
10123;DHT22;5101;49.038;8.710;2022-12-15T06:48:45;0.60;99.90
10123;DHT22;5101;49.038;8.710;2022-12-15T06:51:11;0.60;99.90
10123;DHT22;5101;49.038;8.710;2022-12-15T06:53:38;0.50;99.90
10123;DHT22;5101;49.038;8.710;2022-12-15T06:56:09;0.50;99.90
10123;DHT22;5101;49.038;8.710;2022-12-15T06:58:38;0.50;99.90
10123;DHT22;5101;49.038;8.710;2022-12-15T07:01:05;0.50;99.90
10123;DHT22;5101;49.038;8.710;2022-12-15T07:03:32;0.50;99.90
10123;DHT22;5101;49.038;8.710;2022-12-15T07:06:07;0.50;99.90
10123;DHT22;5101;49.038;8.710;2022-12-15T07:08:33;0.40;99.90
10123;DHT22;5101;49.038;8.710;2022-12-15T07:11:01;0.40;99.90
10123;DHT22;5101;49.038;8.710;2022-12-15T07:13:26;0.40;99.90
10123;DHT22;5101;49.038;8.710;2022-12-15T07:15:52;0.40;99.90
10123;DHT22;5101;49.038;8.710;2022-12-15T07:18:17;0.30;99.90
10123;DHT22;5101;49.038;8.710;2022-12-15T07:20:44;0.40;99.90
10123;DHT22;5101;49.038;8.710;2022-12-15T07:23:10;0.40;99.90
10123;DHT22;5101;49.038;8.710;2022-12-15T07:25:36;0.50;99.90
10123;DHT22;5101;49.038;8.710;2022-12-15T07:28:02;0.50;99.90
10123;DHT22;5101;49.038;8.710;2022-12-15T07:30:28;0.50;99.90
10123;DHT22;5101;49.038;8.710;2022-12-15T07:32:53;0.50;99.90
10123;DHT22;5101;49.038;8.710;2022-12-15T07:35:19;0.40;99.90
10123;DHT22;5101;49.038;8.710;2022-12-15T07:37:44;0.40;99.90
10123;DHT22;5101;49.038;8.710;2022-12-15T07:40:10;0.30;99.90
10123;DHT22;5101;49.038;8.710;2022-12-15T07:42:36;0.20;99.90
10123;DHT22;5101;49.038;8.710;2022-12-15T07:45:02;0.20;99.90
10123;DHT22;5101;49.038;8.710;2022-12-15T07:47:28;0.10;99.90
10123;DHT22;5101;49.038;8.710;2022-12-15T07:49:53;0.20;99.90
10123;DHT22;5101;49.038;8.710;2022-12-15T07:52:19;0.20;99.90
10123;DHT22;5101;49.038;8.710;2022-12-15T07:54:45;0.20;99.90
10123;DHT22;5101;49.038;8.710;2022-12-15T07:57:10;0.30;99.90
10123;DHT22;5101;49.038;8.710;2022-12-15T07:59:36;0.30;99.90
10123;DHT22;5101;49.038;8.710;2022-12-15T08:02:02;0.10;99.90
10123;DHT22;5101;49.038;8.710;2022-12-15T08:04:29;0.10;99.90
10123;DHT22;5101;49.038;8.710;2022-12-15T08:06:55;0.10;99.90
10123;DHT22;5101;49.038;8.710;2022-12-15T08:09:21;0.00;99.90
10123;DHT22;5101;49.038;8.710;2022-12-15T08:11:47;0.00;99.90
10123;DHT22;5101;49.038;8.710;2022-12-15T08:14:12;0.00;99.90
10123;DHT22;5101;49.038;8.710;2022-12-15T08:16:38;0.00;99.90
10123;DHT22;5101;49.038;8.710;2022-12-15T08:19:05;0.00;99.90
10123;DHT22;5101;49.038;8.710;2022-12-15T08:21:31;0.10;99.90
10123;DHT22;5101;49.038;8.710;2022-12-15T08:23:58;0.10;99.90
10123;DHT22;5101;49.038;8.710;2022-12-15T08:26:25;0.10;99.90
10123;DHT22;5101;49.038;8.710;2022-12-15T08:28:51;0.10;99.90
10123;DHT22;5101;49.038;8.710;2022-12-15T08:31:18;0.10;99.90
10123;DHT22;5101;49.038;8.710;2022-12-15T08:33:45;0.10;99.90
10123;DHT22;5101;49.038;8.710;2022-12-15T08:36:14;0.10;99.90
10123;DHT22;5101;49.038;8.710;2022-12-15T08:38:41;0.20;99.90
10123;DHT22;5101;49.038;8.710;2022-12-15T08:41:18;0.30;99.90
10123;DHT22;5101;49.038;8.710;2022-12-15T08:43:45;0.30;99.90
10123;DHT22;5101;49.038;8.710;2022-12-15T08:46:11;0.40;99.90
10123;DHT22;5101;49.038;8.710;2022-12-15T08:48:37;0.50;99.90
10123;DHT22;5101;49.038;8.710;2022-12-15T08:51:03;0.60;99.90
10123;DHT22;5101;49.038;8.710;2022-12-15T08:53:28;0.60;99.90
10123;DHT22;5101;49.038;8.710;2022-12-15T08:55:54;0.50;99.90
10123;DHT22;5101;49.038;8.710;2022-12-15T08:58:19;0.60;99.90
10123;DHT22;5101;49.038;8.710;2022-12-15T09:00:45;0.50;99.90
10123;DHT22;5101;49.038;8.710;2022-12-15T09:03:11;0.50;99.90
10123;DHT22;5101;49.038;8.710;2022-12-15T09:05:37;0.50;99.90
10123;DHT22;5101;49.038;8.710;2022-12-15T09:08:04;0.40;99.90
10123;DHT22;5101;49.038;8.710;2022-12-15T09:10:29;0.40;99.90
10123;DHT22;5101;49.038;8.710;2022-12-15T09:12:55;0.40;99.90
10123;DHT22;5101;49.038;8.710;2022-12-15T09:15:20;0.50;99.90
10123;DHT22;5101;49.038;8.710;2022-12-15T09:17:46;0.50;99.90
10123;DHT22;5101;49.038;8.710;2022-12-15T09:20:12;0.50;99.90
10123;DHT22;5101;49.038;8.710;2022-12-15T09:22:39;0.50;99.90
10123;DHT22;5101;49.038;8.710;2022-12-15T09:25:05;0.50;99.90
10123;DHT22;5101;49.038;8.710;2022-12-15T09:27:30;0.50;99.90
10123;DHT22;5101;49.038;8.710;2022-12-15T09:29:56;0.50;99.90
10123;DHT22;5101;49.038;8.710;2022-12-15T09:32:22;0.50;99.90
10123;DHT22;5101;49.038;8.710;2022-12-15T09:34:50;0.60;99.90
10123;DHT22;5101;49.038;8.710;2022-12-15T09:37:15;0.50;99.90
10123;DHT22;5101;49.038;8.710;2022-12-15T09:39:41;0.50;99.90
10123;DHT22;5101;49.038;8.710;2022-12-15T09:42:23;0.60;99.90
10123;DHT22;5101;49.038;8.710;2022-12-15T09:44:58;0.60;99.90
10123;DHT22;5101;49.038;8.710;2022-12-15T09:47:41;0.50;99.90
10123;DHT22;5101;49.038;8.710;2022-12-15T09:50:11;0.40;99.90
10123;DHT22;5101;49.038;8.710;2022-12-15T09:52:56;0.50;99.90
10123;DHT22;5101;49.038;8.710;2022-12-15T09:55:27;0.30;99.90
10123;DHT22;5101;49.038;8.710;2022-12-15T10:01:00;0.70;99.90
10123;DHT22;5101;49.038;8.710;2022-12-15T10:04:00;0.80;99.90
10123;DHT22;5101;49.038;8.710;2022-12-15T10:06:43;0.70;99.90
10123;DHT22;5101;49.038;8.710;2022-12-15T10:09:24;0.70;99.90
10123;DHT22;5101;49.038;8.710;2022-12-15T10:12:12;0.70;99.90
10123;DHT22;5101;49.038;8.710;2022-12-15T10:14:43;0.60;99.90
10123;DHT22;5101;49.038;8.710;2022-12-15T10:17:27;0.70;99.90
10123;DHT22;5101;49.038;8.710;2022-12-15T10:22:28;0.60;99.90
10123;DHT22;5101;49.038;8.710;2022-12-15T10:24:55;0.70;99.90
10123;DHT22;5101;49.038;8.710;2022-12-15T10:30:10;0.70;99.90
10123;DHT22;5101;49.038;8.710;2022-12-15T10:35:28;0.60;99.90
10123;DHT22;5101;49.038;8.710;2022-12-15T10:37:57;0.60;99.90
10123;DHT22;5101;49.038;8.710;2022-12-15T10:40:50;0.70;99.90
10123;DHT22;5101;49.038;8.710;2022-12-15T10:43:38;0.80;99.90
10123;DHT22;5101;49.038;8.710;2022-12-15T10:46:11;0.80;99.90
10123;DHT22;5101;49.038;8.710;2022-12-15T10:48:39;0.80;99.90
10123;DHT22;5101;49.038;8.710;2022-12-15T10:53:42;0.90;99.90
10123;DHT22;5101;49.038;8.710;2022-12-15T10:56:12;0.70;99.90
10123;DHT22;5101;49.038;8.710;2022-12-15T10:58:52;0.70;99.90
10123;DHT22;5101;49.038;8.710;2022-12-15T11:01:30;0.90;99.90
10123;DHT22;5101;49.038;8.710;2022-12-15T11:03:56;0.90;99.90
10123;DHT22;5101;49.038;8.710;2022-12-15T11:06:33;1.00;99.90
10123;DHT22;5101;49.038;8.710;2022-12-15T11:09:34;1.00;99.90
10123;DHT22;5101;49.038;8.710;2022-12-15T11:12:00;1.10;99.90
10123;DHT22;5101;49.038;8.710;2022-12-15T11:14:49;1.00;99.90
10123;DHT22;5101;49.038;8.710;2022-12-15T11:17:18;1.00;99.90
10123;DHT22;5101;49.038;8.710;2022-12-15T11:19:59;1.00;99.90
10123;DHT22;5101;49.038;8.710;2022-12-15T11:25:19;0.90;99.90
10123;DHT22;5101;49.038;8.710;2022-12-15T11:27:48;0.90;99.90
10123;DHT22;5101;49.038;8.710;2022-12-15T11:30:19;1.00;99.90
10123;DHT22;5101;49.038;8.710;2022-12-15T11:32:48;0.90;99.90
10123;DHT22;5101;49.038;8.710;2022-12-15T11:35:18;0.90;99.90
10123;DHT22;5101;49.038;8.710;2022-12-15T11:38:14;1.00;99.90
10123;DHT22;5101;49.038;8.710;2022-12-15T11:40:42;1.00;99.90
10123;DHT22;5101;49.038;8.710;2022-12-15T11:46:19;1.00;99.90
10123;DHT22;5101;49.038;8.710;2022-12-15T11:49:08;1.00;99.90
10123;DHT22;5101;49.038;8.710;2022-12-15T11:51:48;1.00;99.90
10123;DHT22;5101;49.038;8.710;2022-12-15T11:54:38;1.00;99.90
10123;DHT22;5101;49.038;8.710;2022-12-15T12:00:19;1.00;99.90
10123;DHT22;5101;49.038;8.710;2022-12-15T12:05:35;1.00;99.90
10123;DHT22;5101;49.038;8.710;2022-12-15T12:11:10;1.00;99.90
10123;DHT22;5101;49.038;8.710;2022-12-15T12:14:10;1.10;99.90
10123;DHT22;5101;49.038;8.710;2022-12-15T12:17:02;1.00;99.90
10123;DHT22;5101;49.038;8.710;2022-12-15T12:19:36;1.10;99.90
10123;DHT22;5101;49.038;8.710;2022-12-15T12:25:16;1.10;99.90
10123;DHT22;5101;49.038;8.710;2022-12-15T12:27:55;1.20;99.90
10123;DHT22;5101;49.038;8.710;2022-12-15T12:30:24;1.10;99.90
10123;DHT22;5101;49.038;8.710;2022-12-15T12:38:09;1.10;99.90
10123;DHT22;5101;49.038;8.710;2022-12-15T12:43:37;1.00;99.90
10123;DHT22;5101;49.038;8.710;2022-12-15T12:46:13;1.00;99.90
10123;DHT22;5101;49.038;8.710;2022-12-15T12:49:00;1.00;99.90
10123;DHT22;5101;49.038;8.710;2022-12-15T12:51:36;1.10;99.90
10123;DHT22;5101;49.038;8.710;2022-12-15T12:54:38;1.10;99.90
10123;DHT22;5101;49.038;8.710;2022-12-15T12:56:55;1.20;99.90
10123;DHT22;5101;49.038;8.710;2022-12-15T13:05:28;1.10;99.90
10123;DHT22;5101;49.038;8.710;2022-12-15T13:08:17;1.10;99.90
10123;DHT22;5101;49.038;8.710;2022-12-15T13:10:45;1.00;99.90
10123;DHT22;5101;49.038;8.710;2022-12-15T13:16:07;1.00;99.90
10123;DHT22;5101;49.038;8.710;2022-12-15T13:18:57;1.00;99.90
10123;DHT22;5101;49.038;8.710;2022-12-15T13:24:32;1.20;99.90
10123;DHT22;5101;49.038;8.710;2022-12-15T13:29:33;1.20;99.90
10123;DHT22;5101;49.038;8.710;2022-12-15T13:31:59;1.30;99.90
10123;DHT22;5101;49.038;8.710;2022-12-15T13:34:27;1.40;99.90
10123;DHT22;5101;49.038;8.710;2022-12-15T13:36:55;1.40;99.90
10123;DHT22;5101;49.038;8.710;2022-12-15T13:47:15;1.30;99.90
10123;DHT22;5101;49.038;8.710;2022-12-15T13:49:46;1.20;99.90
10123;DHT22;5101;49.038;8.710;2022-12-15T13:52:38;1.30;99.90
10123;DHT22;5101;49.038;8.710;2022-12-15T13:55:15;1.40;99.90
10123;DHT22;5101;49.038;8.710;2022-12-15T13:57:53;1.40;99.90
10123;DHT22;5101;49.038;8.710;2022-12-15T14:00:20;1.40;99.90
10123;DHT22;5101;49.038;8.710;2022-12-15T14:02:45;1.40;99.90
10123;DHT22;5101;49.038;8.710;2022-12-15T14:07:48;1.50;99.90
10123;DHT22;5101;49.038;8.710;2022-12-15T14:10:21;1.50;99.90
10123;DHT22;5101;49.038;8.710;2022-12-15T14:12:49;1.60;99.90
10123;DHT22;5101;49.038;8.710;2022-12-15T14:15:17;1.70;99.90
10123;DHT22;5101;49.038;8.710;2022-12-15T14:17:53;1.80;99.90
10123;DHT22;5101;49.038;8.710;2022-12-15T14:20:25;1.70;99.90
10123;DHT22;5101;49.038;8.710;2022-12-15T14:22:50;1.70;99.90
10123;DHT22;5101;49.038;8.710;2022-12-15T14:25:24;1.70;99.80
10123;DHT22;5101;49.038;8.710;2022-12-15T14:27:50;1.80;99.70
10123;DHT22;5101;49.038;8.710;2022-12-15T14:32:49;1.70;99.70
10123;DHT22;5101;49.038;8.710;2022-12-15T14:35:24;1.70;99.50
10123;DHT22;5101;49.038;8.710;2022-12-15T14:37:55;1.60;99.50
10123;DHT22;5101;49.038;8.710;2022-12-15T14:40:23;1.60;99.50
10123;DHT22;5101;49.038;8.710;2022-12-15T14:42:49;1.60;99.50
10123;DHT22;5101;49.038;8.710;2022-12-15T14:45:18;1.70;99.50
10123;DHT22;5101;49.038;8.710;2022-12-15T14:47:53;1.70;99.50
10123;DHT22;5101;49.038;8.710;2022-12-15T14:50:20;1.70;99.50
10123;DHT22;5101;49.038;8.710;2022-12-15T14:52:55;1.70;99.50
10123;DHT22;5101;49.038;8.710;2022-12-15T14:55:36;1.60;99.50
10123;DHT22;5101;49.038;8.710;2022-12-15T14:58:31;1.60;99.50
10123;DHT22;5101;49.038;8.710;2022-12-15T15:00:58;1.50;99.50
10123;DHT22;5101;49.038;8.710;2022-12-15T15:03:36;1.40;99.40
10123;DHT22;5101;49.038;8.710;2022-12-15T15:06:21;1.40;99.40
10123;DHT22;5101;49.038;8.710;2022-12-15T15:08:52;1.40;99.40
10123;DHT22;5101;49.038;8.710;2022-12-15T15:11:36;1.50;99.50
10123;DHT22;5101;49.038;8.710;2022-12-15T15:14:17;1.50;99.40
10123;DHT22;5101;49.038;8.710;2022-12-15T15:16:44;1.50;99.50
10123;DHT22;5101;49.038;8.710;2022-12-15T15:19:22;1.50;99.60
10123;DHT22;5101;49.038;8.710;2022-12-15T15:21:48;1.50;99.60
10123;DHT22;5101;49.038;8.710;2022-12-15T15:26:39;1.50;99.60
10123;DHT22;5101;49.038;8.710;2022-12-15T15:29:31;1.50;99.70
10123;DHT22;5101;49.038;8.710;2022-12-15T15:32:16;1.40;99.60
10123;DHT22;5101;49.038;8.710;2022-12-15T15:34:42;1.30;99.90
10123;DHT22;5101;49.038;8.710;2022-12-15T15:37:24;1.30;99.90
10123;DHT22;5101;49.038;8.710;2022-12-15T15:39:51;1.30;99.70
10123;DHT22;5101;49.038;8.710;2022-12-15T15:42:17;1.40;99.70
10123;DHT22;5101;49.038;8.710;2022-12-15T15:44:43;1.40;99.60
10123;DHT22;5101;49.038;8.710;2022-12-15T15:47:25;1.50;99.60
10123;DHT22;5101;49.038;8.710;2022-12-15T15:49:55;1.50;99.60
10123;DHT22;5101;49.038;8.710;2022-12-15T15:52:22;1.40;99.50
10123;DHT22;5101;49.038;8.710;2022-12-15T15:54:48;1.40;99.50
10123;DHT22;5101;49.038;8.710;2022-12-15T15:57:15;1.30;99.40
10123;DHT22;5101;49.038;8.710;2022-12-15T15:59:42;1.30;99.50
10123;DHT22;5101;49.038;8.710;2022-12-15T16:02:10;1.40;99.50
10123;DHT22;5101;49.038;8.710;2022-12-15T16:04:35;1.30;99.40
10123;DHT22;5101;49.038;8.710;2022-12-15T16:07:05;1.40;99.40
10123;DHT22;5101;49.038;8.710;2022-12-15T16:09:31;1.40;99.40
10123;DHT22;5101;49.038;8.710;2022-12-15T16:11:57;1.30;99.30
10123;DHT22;5101;49.038;8.710;2022-12-15T16:14:23;1.20;99.30
10123;DHT22;5101;49.038;8.710;2022-12-15T16:16:49;1.20;99.30
10123;DHT22;5101;49.038;8.710;2022-12-15T16:19:14;1.10;99.30
10123;DHT22;5101;49.038;8.710;2022-12-15T16:21:40;1.10;99.30
10123;DHT22;5101;49.038;8.710;2022-12-15T16:24:09;1.10;99.30
10123;DHT22;5101;49.038;8.710;2022-12-15T16:26:37;1.00;99.20
10123;DHT22;5101;49.038;8.710;2022-12-15T16:29:13;1.00;99.30
10123;DHT22;5101;49.038;8.710;2022-12-15T16:31:38;0.90;99.20
10123;DHT22;5101;49.038;8.710;2022-12-15T16:34:10;0.80;99.20
10123;DHT22;5101;49.038;8.710;2022-12-15T16:36:35;0.70;99.20
10123;DHT22;5101;49.038;8.710;2022-12-15T16:39:01;0.70;99.20
10123;DHT22;5101;49.038;8.710;2022-12-15T16:41:27;0.70;99.20
10123;DHT22;5101;49.038;8.710;2022-12-15T16:43:52;0.60;99.30
10123;DHT22;5101;49.038;8.710;2022-12-15T16:46:18;0.50;99.30
10123;DHT22;5101;49.038;8.710;2022-12-15T16:48:45;0.50;99.30
10123;DHT22;5101;49.038;8.710;2022-12-15T16:51:36;0.50;99.30
10123;DHT22;5101;49.038;8.710;2022-12-15T16:54:03;0.60;99.30
10123;DHT22;5101;49.038;8.710;2022-12-15T16:56:29;0.60;99.30
10123;DHT22;5101;49.038;8.710;2022-12-15T16:58:54;0.60;99.30
10123;DHT22;5101;49.038;8.710;2022-12-15T17:01:21;0.60;99.60
10123;DHT22;5101;49.038;8.710;2022-12-15T17:03:46;0.60;99.30
10123;DHT22;5101;49.038;8.710;2022-12-15T17:06:14;0.70;99.30
10123;DHT22;5101;49.038;8.710;2022-12-15T17:08:53;0.60;99.30
10123;DHT22;5101;49.038;8.710;2022-12-15T17:11:21;0.60;99.40
10123;DHT22;5101;49.038;8.710;2022-12-15T17:13:48;0.60;99.40
10123;DHT22;5101;49.038;8.710;2022-12-15T17:16:20;0.50;99.40
10123;DHT22;5101;49.038;8.710;2022-12-15T17:18:46;0.50;99.40
10123;DHT22;5101;49.038;8.710;2022-12-15T17:21:17;0.40;99.40
10123;DHT22;5101;49.038;8.710;2022-12-15T17:23:46;0.40;99.40
10123;DHT22;5101;49.038;8.710;2022-12-15T17:26:21;0.40;99.40
10123;DHT22;5101;49.038;8.710;2022-12-15T17:28:47;0.30;99.40
10123;DHT22;5101;49.038;8.710;2022-12-15T17:31:17;0.30;99.40
10123;DHT22;5101;49.038;8.710;2022-12-15T17:33:43;0.30;99.40
10123;DHT22;5101;49.038;8.710;2022-12-15T17:36:15;0.30;99.40
10123;DHT22;5101;49.038;8.710;2022-12-15T17:38:41;0.30;99.40
10123;DHT22;5101;49.038;8.710;2022-12-15T17:41:11;0.20;99.30
10123;DHT22;5101;49.038;8.710;2022-12-15T17:43:37;0.10;99.30
10123;DHT22;5101;49.038;8.710;2022-12-15T17:46:02;0.10;99.30
10123;DHT22;5101;49.038;8.710;2022-12-15T17:48:28;0.00;99.30
10123;DHT22;5101;49.038;8.710;2022-12-15T17:50:54;0.10;99.40
10123;DHT22;5101;49.038;8.710;2022-12-15T17:53:21;0.10;99.40
10123;DHT22;5101;49.038;8.710;2022-12-15T17:55:47;0.10;99.40
10123;DHT22;5101;49.038;8.710;2022-12-15T17:58:22;0.10;99.40
10123;DHT22;5101;49.038;8.710;2022-12-15T18:00:50;0.10;99.50
10123;DHT22;5101;49.038;8.710;2022-12-15T18:03:17;0.20;99.50